Time;durP1;ratioP1;P1;durP2;ratioP2;P2;SDS_P1;SDS_P2;PMS_P1;PMS_P2;Temp;Humidity;BMP_temperature;BMP_pressure;BME280_temperature;BME280_humidity;BME280_pressure;Samples;Min_cycle;Max_cycle;Signal;HPM_P1;HPM_P2
2022/07/17 00:00:16;;;;;;;0.82;0.70;;;21.50;63.10;;;;;;6242839;22;44077;-64
2022/07/17 00:02:47;;;;;;;0.68;0.68;;;21.50;63.10;;;;;;6242132;22;43429;-64
2022/07/17 00:05:17;;;;;;;1.10;0.98;;;21.50;63.10;;;;;;6243034;22;43406;-63
2022/07/17 00:07:46;;;;;;;0.75;0.75;;;21.50;63.10;;;;;;6242132;22;43924;-63
2022/07/17 00:10:14;;;;;;;0.60;0.60;;;21.50;63.10;;;;;;6241725;22;43896;-63
2022/07/17 00:12:42;;;;;;;1.38;0.80;;;21.50;63.10;;;;;;6243235;22;43394;-63
2022/07/17 00:15:10;;;;;;;0.65;0.57;;;21.50;63.10;;;;;;6243339;22;43346;-63
2022/07/17 00:17:38;;;;;;;0.82;0.50;;;21.50;63.20;;;;;;6241814;22;43534;-63
2022/07/17 00:20:07;;;;;;;0.70;0.70;;;21.40;63.10;;;;;;6242661;22;44037;-64
2022/07/17 00:22:35;;;;;;;0.63;0.60;;;21.40;63.20;;;;;;6243579;22;43373;-64
2022/07/17 00:25:04;;;;;;;0.70;0.70;;;21.40;63.10;;;;;;6242551;22;43484;-63
2022/07/17 00:27:32;;;;;;;0.93;0.70;;;21.40;63.20;;;;;;6210612;22;43538;-64
2022/07/17 00:30:00;;;;;;;0.98;0.85;;;21.40;63.20;;;;;;6211858;22;43771;-63
2022/07/17 00:32:28;;;;;;;0.50;0.50;;;21.40;63.20;;;;;;6211062;22;43383;-64
2022/07/17 00:34:56;;;;;;;1.33;0.80;;;21.40;63.80;;;;;;6212802;22;43454;-64
2022/07/17 00:37:23;;;;;;;0.85;0.70;;;21.40;63.20;;;;;;6212230;22;43543;-64
2022/07/17 00:39:51;;;;;;;0.60;0.60;;;21.40;63.20;;;;;;6211383;22;44929;-63
2022/07/17 00:42:18;;;;;;;1.02;0.90;;;21.40;63.20;;;;;;6211529;22;43429;-63
2022/07/17 00:44:46;;;;;;;0.70;0.70;;;21.40;63.30;;;;;;6212229;22;43398;-63
2022/07/17 00:47:15;;;;;;;0.80;0.80;;;21.30;63.20;;;;;;6211921;22;43579;-64
2022/07/17 00:49:43;;;;;;;1.55;1.13;;;21.30;63.20;;;;;;6211350;22;44124;-64
2022/07/17 00:52:12;;;;;;;0.80;0.80;;;21.30;63.20;;;;;;6210588;22;44016;-64
2022/07/17 00:54:42;;;;;;;0.60;0.60;;;21.30;63.80;;;;;;6211828;22;43901;-64
2022/07/17 00:57:14;;;;;;;0.88;0.80;;;21.30;63.20;;;;;;6211423;22;43535;-63
2022/07/17 00:59:42;;;;;;;0.70;0.70;;;21.30;63.20;;;;;;6210636;22;44616;-64
2022/07/17 01:02:13;;;;;;;0.63;0.63;;;21.30;63.20;;;;;;6211325;22;43447;-63
2022/07/17 01:04:41;;;;;;;0.88;0.88;;;21.30;63.30;;;;;;6212534;22;43376;-63
2022/07/17 01:07:08;;;;;;;0.65;0.65;;;21.30;63.20;;;;;;6211053;22;43541;-64
2022/07/17 01:09:36;;;;;;;0.93;0.60;;;21.30;63.30;;;;;;6210952;22;43995;-64
2022/07/17 01:12:06;;;;;;;0.75;0.70;;;21.30;63.30;;;;;;6211392;22;43408;-64
2022/07/17 01:14:34;;;;;;;0.93;0.70;;;21.30;63.30;;;;;;6212297;22;43387;-64
2022/07/17 01:17:02;;;;;;;0.80;0.80;;;21.20;63.20;;;;;;6212044;22;43506;-64
2022/07/17 01:19:31;;;;;;;0.70;0.70;;;21.20;63.20;;;;;;6211798;22;43852;-64
2022/07/17 01:21:58;;;;;;;0.70;0.60;;;21.20;63.20;;;;;;6213130;22;43928;-64
2022/07/17 01:24:25;;;;;;;1.30;0.88;;;21.20;63.20;;;;;;6213478;22;43445;-63
2022/07/17 01:26:53;;;;;;;0.85;0.77;;;21.20;63.20;;;;;;6213532;22;43558;-63
2022/07/17 01:29:21;;;;;;;0.80;0.80;;;21.20;63.30;;;;;;6242263;22;43811;-63
2022/07/17 01:31:49;;;;;;;0.90;0.80;;;21.20;63.20;;;;;;6242806;22;43450;-64
2022/07/17 01:34:17;;;;;;;1.05;0.80;;;21.20;63.20;;;;;;6242670;22;43426;-63
2022/07/17 01:36:44;;;;;;;1.08;0.80;;;21.20;63.20;;;;;;6244129;22;43482;-64
2022/07/17 01:39:11;;;;;;;1.05;0.70;;;21.20;63.20;;;;;;6242390;22;43973;-64
2022/07/17 01:41:39;;;;;;;0.63;0.63;;;21.20;63.20;;;;;;6243152;22;43385;-64
2022/07/17 01:44:08;;;;;;;0.60;0.60;;;21.20;63.20;;;;;;6244095;22;43384;-64
2022/07/17 01:46:35;;;;;;;0.85;0.80;;;21.20;63.20;;;;;;6191687;22;43397;-63
2022/07/17 01:49:03;;;;;;;0.80;0.55;;;21.10;63.20;;;;;;6242292;22;43971;-64
2022/07/17 01:51:30;;;;;;;0.70;0.70;;;21.10;63.20;;;;;;6242863;22;43462;-64
2022/07/17 01:53:58;;;;;;;0.80;0.57;;;21.10;63.20;;;;;;6244089;22;43404;-63
2022/07/17 01:56:26;;;;;;;0.70;0.70;;;21.10;63.20;;;;;;6216301;22;43479;-64
2022/07/17 01:58:53;;;;;;;0.47;0.45;;;21.10;63.20;;;;;;6244207;22;45001;-63
2022/07/17 02:01:20;;;;;;;0.57;0.57;;;21.10;63.20;;;;;;6243247;22;43422;-64
2022/07/17 02:03:48;;;;;;;0.80;0.80;;;21.10;63.20;;;;;;6242797;22;43436;-63
2022/07/17 02:06:16;;;;;;;0.60;0.52;;;21.10;63.20;;;;;;6244040;22;43530;-64
2022/07/17 02:08:43;;;;;;;0.65;0.65;;;21.10;63.20;;;;;;6242488;22;43875;-63
2022/07/17 02:11:11;;;;;;;1.00;0.98;;;21.10;63.20;;;;;;6241534;22;43447;-64
2022/07/17 02:13:39;;;;;;;0.70;0.70;;;21.10;63.20;;;;;;6243848;22;43359;-63
2022/07/17 02:16:06;;;;;;;0.63;0.63;;;21.10;63.30;;;;;;6244115;22;43391;-64
2022/07/17 02:18:35;;;;;;;0.80;0.80;;;21.10;63.20;;;;;;6242284;22;45060;-63
2022/07/17 02:21:03;;;;;;;0.80;0.80;;;21.10;63.20;;;;;;6242661;22;43411;-64
2022/07/17 02:23:30;;;;;;;0.55;0.55;;;21.00;63.20;;;;;;6243037;22;43854;-64
2022/07/17 02:25:58;;;;;;;1.23;0.60;;;21.00;63.20;;;;;;6244177;22;43528;-64
2022/07/17 02:28:25;;;;;;;0.85;0.77;;;21.00;63.20;;;;;;6242860;22;44055;-64
2022/07/17 02:30:52;;;;;;;1.17;0.70;;;21.00;63.20;;;;;;6216109;22;43732;-64
2022/07/17 02:33:20;;;;;;;0.98;0.63;;;21.00;63.20;;;;;;6243889;22;43340;-64
2022/07/17 02:35:47;;;;;;;0.60;0.60;;;21.00;63.20;;;;;;6243362;22;43477;-64
2022/07/17 02:38:15;;;;;;;0.80;0.65;;;21.00;63.20;;;;;;6242774;22;43657;-64
2022/07/17 02:40:42;;;;;;;0.65;0.63;;;21.00;63.20;;;;;;6243545;22;43442;-63
2022/07/17 02:43:10;;;;;;;1.13;0.80;;;21.00;63.20;;;;;;6244144;22;43395;-64
2022/07/17 02:45:37;;;;;;;1.15;0.88;;;21.00;63.20;;;;;;6243449;22;44227;-63
2022/07/17 02:48:05;;;;;;;0.73;0.73;;;21.00;63.20;;;;;;6215810;22;44016;-63
2022/07/17 02:50:32;;;;;;;0.60;0.60;;;21.00;63.20;;;;;;6243032;22;43742;-64
2022/07/17 02:53:01;;;;;;;0.80;0.75;;;21.00;63.20;;;;;;6243047;22;43406;-64
2022/07/17 02:55:28;;;;;;;0.43;0.43;;;21.00;63.20;;;;;;6243816;22;43439;-64
2022/07/17 02:57:55;;;;;;;1.25;0.82;;;21.00;63.20;;;;;;6243209;22;44011;-63
2022/07/17 03:00:24;;;;;;;0.85;0.77;;;21.00;63.20;;;;;;6242489;22;43458;-64
2022/07/17 03:02:51;;;;;;;0.60;0.60;;;20.90;63.20;;;;;;6243512;22;43413;-64
2022/07/17 03:05:19;;;;;;;1.02;0.70;;;20.90;63.20;;;;;;6242740;22;43581;-64
2022/07/17 03:07:46;;;;;;;0.93;0.80;;;20.90;63.20;;;;;;6242093;22;44010;-63
2022/07/17 03:10:15;;;;;;;0.70;0.70;;;20.90;63.20;;;;;;6242095;22;43529;-64
2022/07/17 03:12:43;;;;;;;1.20;0.65;;;20.90;63.20;;;;;;6241164;22;43848;-63
2022/07/17 03:15:11;;;;;;;0.73;0.70;;;20.90;63.20;;;;;;6243384;22;43460;-64
2022/07/17 03:17:39;;;;;;;0.85;0.85;;;20.90;63.20;;;;;;6242343;22;43950;-64
2022/07/17 03:20:08;;;;;;;0.73;0.60;;;20.90;63.20;;;;;;6242149;22;43412;-64
2022/07/17 03:22:36;;;;;;;0.70;0.70;;;20.90;63.20;;;;;;6243719;22;43430;-64
2022/07/17 03:25:04;;;;;;;0.77;0.77;;;20.90;63.20;;;;;;6243531;22;43588;-63
2022/07/17 03:27:31;;;;;;;0.80;0.80;;;20.80;63.10;;;;;;6242182;22;44925;-64
2022/07/17 03:29:59;;;;;;;1.23;0.82;;;20.80;63.10;;;;;;6243466;22;43466;-63
2022/07/17 03:32:26;;;;;;;1.08;0.70;;;20.90;63.20;;;;;;6243602;22;43423;-63
2022/07/17 03:34:53;;;;;;;0.70;0.70;;;20.80;63.20;;;;;;6243042;22;43551;-63
2022/07/17 03:37:21;;;;;;;0.80;0.80;;;20.80;63.20;;;;;;6242957;22;44181;-64
2022/07/17 03:39:48;;;;;;;0.73;0.73;;;20.80;63.20;;;;;;6242637;22;43647;-63
2022/07/17 03:42:15;;;;;;;1.17;0.80;;;20.80;63.20;;;;;;6241643;22;43396;-64
2022/07/17 03:44:43;;;;;;;1.00;0.90;;;20.80;63.20;;;;;;6242252;22;43517;-63
2022/07/17 03:47:11;;;;;;;2.05;0.73;;;20.80;63.20;;;;;;6241721;22;43768;-63
2022/07/17 03:49:39;;;;;;;0.63;0.60;;;20.80;63.20;;;;;;6240431;22;43442;-63
2022/07/17 03:52:06;;;;;;;0.63;0.63;;;20.80;63.20;;;;;;6241553;22;43455;-64
2022/07/17 03:54:34;;;;;;;0.80;0.80;;;20.80;63.20;;;;;;6243483;22;43598;-64
2022/07/17 03:57:01;;;;;;;0.73;0.73;;;20.80;63.20;;;;;;6242165;22;44195;-63
2022/07/17 03:59:28;;;;;;;0.88;0.70;;;20.80;63.20;;;;;;6242218;22;43366;-63
2022/07/17 04:01:56;;;;;;;1.38;0.95;;;20.80;63.20;;;;;;6242425;22;43474;-63
2022/07/17 04:04:23;;;;;;;0.82;0.70;;;20.70;63.20;;;;;;6243469;22;43364;-64
2022/07/17 04:06:51;;;;;;;0.75;0.75;;;20.70;63.20;;;;;;6243339;22;44439;-63
2022/07/17 04:09:18;;;;;;;0.75;0.70;;;20.80;63.20;;;;;;6242086;22;43943;-63
2022/07/17 04:11:45;;;;;;;0.70;0.70;;;20.70;63.20;;;;;;6242104;22;43400;-63
2022/07/17 04:14:13;;;;;;;1.17;0.80;;;20.70;63.20;;;;;;6243097;22;43537;-63
2022/07/17 04:16:41;;;;;;;0.60;0.60;;;20.70;63.20;;;;;;6242168;22;44050;-63
2022/07/17 04:19:08;;;;;;;1.52;0.73;;;20.70;63.20;;;;;;6242333;22;43413;-64
2022/07/17 04:21:36;;;;;;;0.60;0.60;;;20.70;63.20;;;;;;6242621;22;43426;-64
2022/07/17 04:24:04;;;;;;;0.60;0.60;;;20.70;63.20;;;;;;6242753;22;43503;-63
2022/07/17 04:26:31;;;;;;;0.68;0.68;;;20.70;63.20;;;;;;6241798;22;43717;-63
2022/07/17 04:29:00;;;;;;;0.75;0.75;;;20.70;63.20;;;;;;6242631;22;43618;-63
2022/07/17 04:31:27;;;;;;;0.70;0.70;;;20.70;63.20;;;;;;6241322;22;43421;-63
2022/07/17 04:33:55;;;;;;;1.33;0.70;;;20.70;63.20;;;;;;6243373;22;43389;-63
2022/07/17 04:36:22;;;;;;;0.65;0.55;;;20.60;63.20;;;;;;6215985;22;43860;-63
2022/07/17 04:38:50;;;;;;;0.60;0.60;;;20.60;63.20;;;;;;6242197;22;43715;-63
2022/07/17 04:41:18;;;;;;;0.95;0.70;;;20.60;63.20;;;;;;6242538;22;43471;-63
2022/07/17 04:43:45;;;;;;;1.38;0.95;;;20.60;63.20;;;;;;6243062;22;43483;-63
2022/07/17 04:46:12;;;;;;;0.80;0.70;;;20.60;63.20;;;;;;6242729;22;44907;-63
2022/07/17 04:48:40;;;;;;;0.80;0.80;;;20.60;63.20;;;;;;6242708;22;43405;-63
2022/07/17 04:51:07;;;;;;;1.67;0.98;;;20.60;63.20;;;;;;6241858;22;43427;-63
2022/07/17 04:53:35;;;;;;;1.08;0.90;;;20.60;63.20;;;;;;6243161;22;43880;-63
2022/07/17 04:56:03;;;;;;;0.77;0.77;;;20.60;63.20;;;;;;6242976;22;43980;-63
2022/07/17 04:58:31;;;;;;;0.80;0.60;;;20.60;63.20;;;;;;6241618;22;43439;-63
2022/07/17 05:00:59;;;;;;;0.80;0.80;;;20.60;63.20;;;;;;6242762;22;43441;-64
2022/07/17 05:03:26;;;;;;;0.80;0.80;;;20.60;63.30;;;;;;6243012;22;43369;-64
2022/07/17 05:05:54;;;;;;;1.27;0.70;;;20.60;63.20;;;;;;6242169;22;44131;-63
2022/07/17 05:08:21;;;;;;;0.75;0.75;;;20.60;63.20;;;;;;6242223;22;43388;-64
2022/07/17 05:10:48;;;;;;;0.70;0.70;;;20.60;63.20;;;;;;6242366;22;43398;-64
2022/07/17 05:13:16;;;;;;;0.68;0.68;;;20.60;63.30;;;;;;6242144;22;43391;-63
2022/07/17 05:15:43;;;;;;;0.77;0.77;;;20.60;63.20;;;;;;6242246;22;44001;-64
2022/07/17 05:18:12;;;;;;;0.77;0.70;;;20.60;63.20;;;;;;6241736;22;43451;-64
2022/07/17 05:20:40;;;;;;;0.82;0.70;;;20.60;63.20;;;;;;6241371;22;43449;-63
2022/07/17 05:23:08;;;;;;;0.75;0.70;;;20.60;63.30;;;;;;6243340;22;43401;-64
2022/07/17 05:25:35;;;;;;;0.93;0.90;;;20.50;63.20;;;;;;6241668;22;44023;-63
2022/07/17 05:28:03;;;;;;;0.75;0.75;;;20.60;63.30;;;;;;6241396;22;43423;-63
2022/07/17 05:30:30;;;;;;;0.80;0.80;;;20.60;63.30;;;;;;6241763;22;43403;-63
2022/07/17 05:32:58;;;;;;;0.98;0.90;;;20.60;63.30;;;;;;6243587;22;43509;-63
2022/07/17 05:35:25;;;;;;;1.20;0.65;;;20.60;63.30;;;;;;6241691;22;44007;-63
2022/07/17 05:37:56;;;;;;;;;;;20.60;63.30;;;;;;6191963;22;43384;-63
2022/07/17 05:40:25;;;;;;;1.13;0.80;;;20.50;63.20;;;;;;6241751;22;43400;-63
2022/07/17 05:42:53;;;;;;;1.40;1.00;;;20.50;63.30;;;;;;6243041;22;43513;-63
2022/07/17 05:45:20;;;;;;;0.73;0.70;;;20.50;63.30;;;;;;6242603;22;44024;-63
2022/07/17 05:47:47;;;;;;;0.88;0.80;;;20.50;63.20;;;;;;6241288;22;43430;-63
2022/07/17 05:50:15;;;;;;;0.73;0.73;;;20.50;63.30;;;;;;6241695;22;43353;-63
2022/07/17 05:52:42;;;;;;;1.92;0.80;;;20.50;63.30;;;;;;6215331;22;43480;-63
2022/07/17 05:55:09;;;;;;;0.77;0.77;;;20.50;63.30;;;;;;6241627;22;45087;-63
2022/07/17 05:57:37;;;;;;;1.00;0.80;;;20.50;63.30;;;;;;6241967;22;43392;-64
2022/07/17 06:00:05;;;;;;;1.70;0.77;;;20.50;63.30;;;;;;6241636;22;43460;-63
2022/07/17 06:02:38;;;;;;;0.80;0.80;;;20.50;63.40;;;;;;6243134;22;43482;-63
2022/07/17 06:05:06;;;;;;;0.68;0.68;;;20.50;63.40;;;;;;6243727;22;43989;-62
2022/07/17 06:07:34;;;;;;;0.73;0.73;;;20.50;63.30;;;;;;6244156;22;43394;-62
2022/07/17 06:10:04;;;;;;;0.88;0.80;;;20.50;63.40;;;;;;6244421;22;43389;-62
2022/07/17 06:12:32;;;;;;;0.90;0.90;;;20.50;63.40;;;;;;6244697;22;43435;-62
2022/07/17 06:14:59;;;;;;;1.05;0.80;;;20.50;63.40;;;;;;6245529;22;43997;-62
2022/07/17 06:17:28;;;;;;;0.98;0.95;;;20.50;64.10;;;;;;6243856;22;43380;-62
2022/07/17 06:19:55;;;;;;;1.42;0.95;;;20.50;63.40;;;;;;6243551;22;43338;-63
2022/07/17 06:22:23;;;;;;;1.10;0.98;;;20.50;63.50;;;;;;6243186;22;43483;-63
2022/07/17 06:24:50;;;;;;;1.00;0.80;;;20.50;63.50;;;;;;6243800;22;44027;-62
2022/07/17 06:27:18;;;;;;;0.80;0.80;;;20.50;63.50;;;;;;6242557;22;43494;-63
2022/07/17 06:29:46;;;;;;;0.95;0.70;;;20.50;63.50;;;;;;6242602;22;43424;-62
2022/07/17 06:32:22;;;;;;;1.67;0.70;;;20.50;63.50;;;;;;6244188;22;43407;-63
2022/07/17 06:34:49;;;;;;;0.60;0.60;;;20.50;63.50;;;;;;6243598;22;44002;-63
2022/07/17 06:37:17;;;;;;;1.10;0.70;;;20.50;63.50;;;;;;6242687;22;43367;-63
2022/07/17 06:39:44;;;;;;;0.70;0.70;;;20.50;63.40;;;;;;6242775;22;43412;-63
2022/07/17 06:42:12;;;;;;;1.25;0.85;;;20.50;63.40;;;;;;6242434;22;44038;-63
2022/07/17 06:44:39;;;;;;;0.77;0.77;;;20.50;63.50;;;;;;6242355;22;44161;-63
2022/07/17 06:47:06;;;;;;;0.82;0.80;;;20.50;63.50;;;;;;6215716;22;43375;-63
2022/07/17 06:49:35;;;;;;;0.60;0.60;;;20.50;63.50;;;;;;6243095;22;43452;-64
2022/07/17 06:52:02;;;;;;;0.82;0.82;;;20.50;63.50;;;;;;6242258;22;43424;-64
2022/07/17 06:54:29;;;;;;;0.80;0.80;;;20.50;63.60;;;;;;6243445;22;43770;-64
2022/07/17 06:56:57;;;;;;;1.10;0.88;;;20.50;63.50;;;;;;6243488;22;43735;-63
2022/07/17 06:59:24;;;;;;;0.93;0.93;;;20.50;63.50;;;;;;6242447;22;43348;-64
2022/07/17 07:01:52;;;;;;;0.80;0.68;;;20.50;63.60;;;;;;6238810;22;43917;-65
2022/07/17 07:04:19;;;;;;;0.80;0.80;;;20.50;63.50;;;;;;6241708;22;43872;-65
2022/07/17 07:06:46;;;;;;;0.80;0.80;;;20.50;63.50;;;;;;6241532;22;43370;-63
2022/07/17 07:09:14;;;;;;;0.90;0.90;;;20.50;63.50;;;;;;6241418;22;43379;-63
2022/07/17 07:11:43;;;;;;;1.17;0.88;;;20.50;63.40;;;;;;6241045;22;43427;-64
2022/07/17 07:14:11;;;;;;;1.00;0.90;;;20.50;63.40;;;;;;6242283;22;43756;-64
2022/07/17 07:16:38;;;;;;;2.25;1.08;;;20.50;63.40;;;;;;6241298;22;43377;-64
2022/07/17 07:19:06;;;;;;;1.50;1.05;;;20.50;63.40;;;;;;6241066;22;43357;-64
2022/07/17 07:21:33;;;;;;;1.08;0.88;;;20.50;63.40;;;;;;6241439;22;43589;-64
2022/07/17 07:24:01;;;;;;;2.45;1.00;;;20.50;63.40;;;;;;6242693;22;44485;-64
2022/07/17 07:26:28;;;;;;;1.83;0.90;;;20.50;63.40;;;;;;6214798;22;43911;-63
2022/07/17 07:28:55;;;;;;;0.80;0.80;;;20.50;63.40;;;;;;6241920;22;43466;-63
2022/07/17 07:31:23;;;;;;;0.90;0.90;;;20.50;63.40;;;;;;6241135;22;43638;-63
2022/07/17 07:33:50;;;;;;;0.98;0.80;;;20.50;63.40;;;;;;6242673;22;43988;-64
2022/07/17 07:36:17;;;;;;;1.88;0.80;;;20.50;63.30;;;;;;6243337;22;43474;-64
2022/07/17 07:38:45;;;;;;;1.17;0.93;;;20.50;63.30;;;;;;6239807;22;43352;-65
2022/07/17 07:41:13;;;;;;;1.08;0.88;;;20.50;63.40;;;;;;6240570;22;43463;-65
2022/07/17 07:43:40;;;;;;;0.90;0.80;;;20.60;63.30;;;;;;6242568;22;44034;-66
2022/07/17 07:46:08;;;;;;;1.92;1.00;;;20.60;63.20;;;;;;6242746;22;43363;-65
2022/07/17 07:48:35;;;;;;;1.58;0.90;;;20.60;63.10;;;;;;6241349;22;43350;-65
2022/07/17 07:51:03;;;;;;;1.75;1.15;;;20.60;63.10;;;;;;6214445;22;43579;-65
2022/07/17 07:53:30;;;;;;;1.27;0.73;;;20.60;63.10;;;;;;6242215;22;44795;-63
2022/07/17 07:55:58;;;;;;;0.70;0.70;;;20.60;63.10;;;;;;6241845;22;43699;-64
2022/07/17 07:58:25;;;;;;;1.42;1.15;;;20.60;63.00;;;;;;6241308;22;43379;-65
2022/07/17 08:00:52;;;;;;;1.52;0.80;;;20.70;63.00;;;;;;6242064;22;43412;-65
2022/07/17 08:03:20;;;;;;;1.15;0.80;;;20.70;63.00;;;;;;6242428;22;43759;-64
2022/07/17 08:05:51;;;;;;;0.77;0.77;;;20.70;63.00;;;;;;6242114;22;43347;-65
2022/07/17 08:08:19;;;;;;;1.20;1.10;;;20.70;63.00;;;;;;6241388;22;43487;-65
2022/07/17 08:10:46;;;;;;;1.05;0.95;;;20.70;63.00;;;;;;6214228;22;43670;-68
2022/07/17 08:13:13;;;;;;;1.35;0.77;;;20.70;63.00;;;;;;6241633;22;43921;-66
2022/07/17 08:15:41;;;;;;;0.98;0.98;;;20.80;63.10;;;;;;6241112;22;43449;-65
2022/07/17 08:18:08;;;;;;;0.90;0.90;;;20.80;63.60;;;;;;6241537;22;43457;-65
2022/07/17 08:20:36;;;;;;;1.00;0.80;;;20.80;62.90;;;;;;6241651;22;43546;-65
2022/07/17 08:23:03;;;;;;;1.00;0.90;;;20.80;62.90;;;;;;6188870;22;44256;-65
2022/07/17 08:25:34;;;;;;;1.02;0.90;;;20.80;62.90;;;;;;6241955;22;43684;-65
2022/07/17 08:28:04;;;;;;;1.13;0.80;;;20.80;62.90;;;;;;6241036;22;43399;-65
2022/07/17 08:30:34;;;;;;;1.02;0.93;;;20.80;62.90;;;;;;6240196;22;43481;-64
2022/07/17 08:33:04;;;;;;;1.70;0.80;;;20.80;63.00;;;;;;6242528;22;45015;-65
2022/07/17 08:35:31;;;;;;;1.35;0.90;;;20.80;63.10;;;;;;6242026;22;43341;-64
2022/07/17 08:38:02;;;;;;;1.48;0.82;;;20.80;63.10;;;;;;6241421;22;43419;-65
2022/07/17 08:40:34;;;;;;;1.00;0.90;;;20.80;63.20;;;;;;6241195;22;43462;-64
2022/07/17 08:43:04;;;;;;;1.00;0.85;;;20.80;63.20;;;;;;6241839;22;43833;-65
2022/07/17 08:45:32;;;;;;;1.63;0.60;;;20.80;63.20;;;;;;6241868;22;44098;-65
2022/07/17 08:48:00;;;;;;;0.93;0.85;;;20.80;63.10;;;;;;6241930;22;43458;-64
2022/07/17 08:50:34;;;;;;;1.85;0.70;;;20.80;63.20;;;;;;6213235;22;43535;-64
2022/07/17 08:53:02;;;;;;;0.80;0.63;;;20.80;63.10;;;;;;6241882;22;44659;-64
2022/07/17 08:55:30;;;;;;;0.80;0.63;;;20.80;63.00;;;;;;6241935;22;43366;-64
2022/07/17 08:57:58;;;;;;;0.98;0.75;;;20.90;63.20;;;;;;6240979;22;43484;-64
2022/07/17 09:00:26;;;;;;;1.23;0.90;;;20.90;63.10;;;;;;6241355;22;43586;-64
2022/07/17 09:03:05;;;;;;;1.67;0.93;;;20.90;63.10;;;;;;6241216;22;44025;-65
2022/07/17 09:05:39;;;;;;;0.98;0.90;;;20.90;63.00;;;;;;6241405;22;43446;-64
2022/07/17 09:08:09;;;;;;;1.42;0.80;;;20.90;63.10;;;;;;6241453;22;43360;-64
2022/07/17 09:10:45;;;;;;;0.68;0.60;;;20.90;63.10;;;;;;6242554;22;43405;-64
2022/07/17 09:13:21;;;;;;;0.73;0.70;;;20.90;63.10;;;;;;6214861;22;43902;-64
2022/07/17 09:15:54;;;;;;;0.80;0.80;;;20.90;63.10;;;;;;6242937;22;43336;-64
2022/07/17 09:18:22;;;;;;;0.80;0.80;;;20.90;63.00;;;;;;6242368;22;43487;-64
2022/07/17 09:20:55;;;;;;;1.55;0.73;;;20.90;63.00;;;;;;6241741;22;43569;-64
2022/07/17 09:23:24;;;;;;;1.08;0.85;;;20.90;63.00;;;;;;6242193;22;44652;-64
2022/07/17 09:25:56;;;;;;;0.77;0.77;;;20.90;63.00;;;;;;6241975;22;43478;-64
2022/07/17 09:28:24;;;;;;;1.00;0.80;;;20.90;63.00;;;;;;6216304;22;43381;-64
2022/07/17 09:30:55;;;;;;;1.17;0.90;;;21.00;63.00;;;;;;6241941;22;43395;-64
2022/07/17 09:33:28;;;;;;;1.25;0.90;;;21.00;63.00;;;;;;6241909;22;44057;-64
2022/07/17 09:36:08;;;;;;;1.00;0.85;;;21.00;63.00;;;;;;6242683;22;43407;-64
2022/07/17 09:38:38;;;;;;;0.88;0.80;;;21.00;63.00;;;;;;6242662;22;43364;-64
2022/07/17 09:41:11;;;;;;;1.30;1.20;;;21.00;63.00;;;;;;6241648;22;43435;-64
2022/07/17 09:43:44;;;;;;;0.82;0.60;;;21.00;63.10;;;;;;6243373;22;43907;-64
2022/07/17 09:46:30;;;;;;;0.57;0.57;;;21.00;63.10;;;;;;6244028;22;44115;-64
2022/07/17 09:49:04;;;;;;;2.45;0.90;;;21.00;63.10;;;;;;6243964;22;43395;-64
2022/07/17 09:51:34;;;;;;;1.17;0.70;;;21.00;63.10;;;;;;6243262;22;43411;-65
2022/07/17 09:54:03;;;;;;;0.50;0.50;;;21.00;63.00;;;;;;6242979;22;43834;-64
2022/07/17 09:56:33;;;;;;;2.70;0.85;;;21.10;63.20;;;;;;6240277;22;43346;-64
2022/07/17 09:59:02;;;;;;;0.98;0.80;;;21.10;63.10;;;;;;6215576;22;43680;-65
2022/07/17 10:01:30;;;;;;;0.57;0.57;;;21.10;63.00;;;;;;6241848;22;43455;-65
2022/07/17 10:04:00;;;;;;;0.73;0.70;;;21.10;63.00;;;;;;6241433;22;44224;-65
2022/07/17 10:06:28;;;;;;;2.35;0.93;;;21.10;63.00;;;;;;6243361;22;43713;-65
2022/07/17 10:08:57;;;;;;;1.00;0.90;;;21.10;63.00;;;;;;6242626;22;43333;-64
2022/07/17 10:11:28;;;;;;;2.15;0.82;;;21.20;63.00;;;;;;6241222;22;43467;-64
2022/07/17 10:14:02;;;;;;;;;;;21.20;63.00;;;;;;6243062;22;43748;-64
2022/07/17 10:16:31;;;;;;;0.75;0.70;;;21.20;62.90;;;;;;6241958;22;43698;-64
2022/07/17 10:19:02;;;;;;;0.70;0.70;;;21.20;63.00;;;;;;6215197;22;43475;-65
2022/07/17 10:21:31;;;;;;;0.70;0.70;;;21.20;62.90;;;;;;6241713;22;43414;-65
2022/07/17 10:23:59;;;;;;;0.75;0.75;;;21.20;62.90;;;;;;6241967;22;44081;-65
2022/07/17 10:26:38;;;;;;;2.03;0.77;;;21.30;63.00;;;;;;6242727;22;43989;-64
2022/07/17 10:29:25;;;;;;;0.80;0.70;;;21.30;63.00;;;;;;6241674;22;43356;-64
2022/07/17 10:31:52;;;;;;;0.63;0.63;;;21.30;62.90;;;;;;6241548;22;44128;-65
2022/07/17 10:34:42;;;;;;;0.82;0.75;;;21.30;62.90;;;;;;6241862;22;44172;-65
2022/07/17 10:37:19;;;;;;;1.25;0.90;;;21.40;62.90;;;;;;6241318;22;43387;-64
2022/07/17 10:39:57;;;;;;;1.13;0.80;;;21.30;62.90;;;;;;6242845;22;43356;-65
2022/07/17 10:43:02;;;;;;;0.82;0.82;;;21.40;63.00;;;;;;6243355;22;43499;-64
2022/07/17 10:45:39;;;;;;;1.05;0.70;;;21.40;62.80;;;;;;6243287;22;43842;-65
2022/07/17 10:48:16;;;;;;;1.63;0.85;;;21.40;62.80;;;;;;6242656;22;43413;-64
2022/07/17 10:50:54;;;;;;;1.77;0.77;;;21.40;62.80;;;;;;6242164;22;43361;-65
2022/07/17 10:53:39;;;;;;;1.17;0.75;;;21.40;62.80;;;;;;6243925;22;43627;-65
2022/07/17 10:56:08;;;;;;;0.88;0.88;;;21.40;62.70;;;;;;6243852;22;43779;-65
2022/07/17 10:58:40;;;;;;;0.75;0.70;;;21.40;62.70;;;;;;6243046;22;43524;-65
2022/07/17 11:01:12;;;;;;;0.70;0.60;;;21.50;62.70;;;;;;6244559;22;43416;-65
2022/07/17 11:03:48;;;;;;;0.73;0.60;;;21.50;62.70;;;;;;6244195;22;43371;-64
2022/07/17 11:06:32;;;;;;;1.45;0.80;;;21.50;62.60;;;;;;6244030;22;43796;-65
2022/07/17 11:09:08;;;;;;;0.63;0.63;;;21.50;62.50;;;;;;6244108;22;44283;-65
2022/07/17 11:11:43;;;;;;;0.70;0.70;;;21.50;62.50;;;;;;6243527;22;43379;-65
2022/07/17 11:14:20;;;;;;;0.82;0.80;;;21.50;62.50;;;;;;6244156;22;43499;-65
2022/07/17 11:16:56;;;;;;;0.98;0.73;;;21.60;62.50;;;;;;6243772;22;44040;-65
2022/07/17 11:19:30;;;;;;;1.42;0.90;;;21.60;62.50;;;;;;6243099;22;43369;-66
2022/07/17 11:22:00;;;;;;;0.60;0.60;;;21.60;63.30;;;;;;6243794;22;43433;-64
2022/07/17 11:24:44;;;;;;;0.85;0.75;;;21.60;62.90;;;;;;6243449;22;43423;-64
2022/07/17 11:27:18;;;;;;;0.50;0.50;;;21.60;62.90;;;;;;6243151;22;43771;-64
2022/07/17 11:29:47;;;;;;;0.82;0.60;;;21.60;62.80;;;;;;6243269;22;43377;-64
2022/07/17 11:32:14;;;;;;;0.60;0.60;;;21.60;62.90;;;;;;6243002;22;43413;-64
2022/07/17 11:34:43;;;;;;;1.58;0.80;;;21.70;63.00;;;;;;6217683;22;43592;-64
2022/07/17 11:37:11;;;;;;;0.85;0.77;;;21.70;62.90;;;;;;6243005;22;43840;-64
2022/07/17 11:39:47;;;;;;;0.50;0.50;;;21.70;63.00;;;;;;6242688;22;43440;-65
2022/07/17 11:42:17;;;;;;;0.88;0.65;;;21.70;62.90;;;;;;6244004;22;43369;-65
2022/07/17 11:44:45;;;;;;;0.90;0.73;;;21.80;63.10;;;;;;6244146;22;43495;-65
2022/07/17 11:47:20;;;;;;;0.68;0.68;;;21.80;63.20;;;;;;6243624;22;44777;-64
2022/07/17 11:49:48;;;;;;;0.77;0.70;;;21.80;63.20;;;;;;6243354;22;44053;-64
2022/07/17 11:52:20;;;;;;;1.73;0.80;;;21.80;63.20;;;;;;6242649;22;43373;-65
2022/07/17 11:54:54;;;;;;;0.90;0.60;;;21.80;63.20;;;;;;6243556;22;43493;-64
2022/07/17 11:57:25;;;;;;;0.90;0.77;;;21.90;63.30;;;;;;6242982;22;44059;-64
2022/07/17 11:59:54;;;;;;;1.35;1.05;;;21.90;63.30;;;;;;6243071;22;43927;-65
2022/07/17 12:02:28;;;;;;;0.90;0.90;;;21.90;63.40;;;;;;6242386;22;43385;-65
2022/07/17 12:04:58;;;;;;;0.90;0.70;;;21.90;64.00;;;;;;6243596;22;43948;-64
2022/07/17 12:07:47;;;;;;;1.02;0.80;;;22.00;63.40;;;;;;6242127;22;44678;-65
2022/07/17 12:10:21;;;;;;;0.82;0.68;;;22.00;63.10;;;;;;6243297;22;43462;-65
2022/07/17 12:13:06;;;;;;;1.00;0.80;;;22.00;63.10;;;;;;6243843;22;43392;-64
2022/07/17 12:15:42;;;;;;;0.80;0.80;;;22.00;63.20;;;;;;6243367;22;43463;-64
2022/07/17 12:18:29;;;;;;;0.70;0.70;;;22.00;63.10;;;;;;6243585;22;44777;-64
2022/07/17 12:21:05;;;;;;;1.02;0.80;;;22.10;63.10;;;;;;6243115;22;43440;-64
2022/07/17 12:23:40;;;;;;;0.50;0.50;;;22.10;63.70;;;;;;6244383;22;43487;-65
2022/07/17 12:26:17;;;;;;;1.67;0.80;;;22.10;63.10;;;;;;6244185;22;43502;-65
2022/07/17 12:28:46;;;;;;;0.80;0.80;;;22.10;63.10;;;;;;6240997;22;44348;-64
2022/07/17 12:31:14;;;;;;;0.80;0.80;;;22.10;63.00;;;;;;6242696;22;43416;-64
2022/07/17 12:33:42;;;;;;;0.73;0.70;;;22.20;63.20;;;;;;6243660;22;43454;-64
2022/07/17 12:36:10;;;;;;;0.80;0.80;;;22.20;63.00;;;;;;6215750;22;43567;-65
2022/07/17 12:38:38;;;;;;;1.27;1.00;;;22.20;63.00;;;;;;6243232;22;43968;-65
2022/07/17 12:41:05;;;;;;;0.70;0.70;;;22.30;63.00;;;;;;6242736;22;43958;-64
2022/07/17 12:43:33;;;;;;;1.30;0.73;;;22.30;62.90;;;;;;6243707;22;43383;-65
2022/07/17 12:46:00;;;;;;;0.77;0.77;;;22.30;62.90;;;;;;6243793;22;43530;-64
2022/07/17 12:48:42;;;;;;;1.00;1.00;;;22.30;62.90;;;;;;6243732;22;44088;-65
2022/07/17 12:51:12;;;;;;;0.80;0.80;;;22.40;62.90;;;;;;6242362;22;43363;-65
2022/07/17 12:53:42;;;;;;;1.00;0.90;;;22.40;62.80;;;;;;6244017;22;43439;-65
2022/07/17 12:56:09;;;;;;;1.48;0.80;;;22.40;62.90;;;;;;6243978;22;43575;-64
2022/07/17 12:58:38;;;;;;;0.95;0.95;;;22.50;63.00;;;;;;6242968;22;44904;-65